Time;durP1;ratioP1;P1;durP2;ratioP2;P2;SDS_P1;SDS_P2;PMS_P1;PMS_P2;Temp;Humidity;BMP_temperature;BMP_pressure;BME280_temperature;BME280_humidity;BME280_pressure;Samples;Min_cycle;Max_cycle;Signal;HPM_P1;HPM_P2
2023/12/08 00:00:09;;;;;;;30.08;12.63;;;0.80;99.90;;;;;;4971152;28;20035;-64
2023/12/08 00:02:35;;;;;;;30.63;12.15;;;0.80;99.90;;;;;;4970320;28;20423;-65
2023/12/08 00:05:00;;;;;;;33.25;11.73;;;0.80;99.90;;;;;;4970147;28;20031;-64
2023/12/08 00:07:26;;;;;;;32.58;12.57;;;0.80;99.90;;;;;;4969574;28;20041;-67
2023/12/08 00:09:52;;;;;;;34.17;12.48;;;0.80;99.90;;;;;;4969169;28;20227;-63
2023/12/08 00:12:17;;;;;;;32.20;12.70;;;0.80;99.90;;;;;;4969309;28;20027;-64
2023/12/08 00:14:43;;;;;;;32.80;12.65;;;0.70;99.90;;;;;;4969141;28;20042;-63
2023/12/08 00:17:08;;;;;;;32.45;12.88;;;0.70;99.90;;;;;;4969792;28;20360;-64
2023/12/08 00:19:34;;;;;;;37.53;13.70;;;0.70;99.90;;;;;;4969075;28;20054;-63
2023/12/08 00:22:00;;;;;;;31.95;12.60;;;0.70;99.90;;;;;;4967833;28;20054;-64
2023/12/08 00:24:25;;;;;;;35.83;13.95;;;0.70;99.90;;;;;;4982013;28;20023;-66
2023/12/08 00:26:51;;;;;;;33.22;12.65;;;0.70;99.90;;;;;;4978843;28;20130;-64
2023/12/08 00:29:19;;;;;;;33.67;12.90;;;0.70;99.90;;;;;;4979462;28;20061;-64
2023/12/08 00:31:45;;;;;;;33.35;13.57;;;0.70;99.90;;;;;;4982243;28;20088;-65
2023/12/08 00:34:11;;;;;;;37.47;13.88;;;0.70;99.90;;;;;;4975026;28;20035;-63
2023/12/08 00:36:37;;;;;;;42.10;15.00;;;0.60;99.90;;;;;;4973913;28;20125;-64
2023/12/08 00:39:02;;;;;;;38.22;14.38;;;0.70;99.90;;;;;;4983836;28;20105;-64
2023/12/08 00:41:28;;;;;;;33.88;12.15;;;0.70;99.90;;;;;;4980461;28;20038;-66
2023/12/08 00:43:54;;;;;;;34.30;13.27;;;0.70;99.90;;;;;;4981539;28;20479;-64
2023/12/08 00:46:19;;;;;;;33.50;12.73;;;0.60;99.90;;;;;;4960307;28;20501;-63
2023/12/08 00:48:45;;;;;;;34.78;12.63;;;0.70;99.90;;;;;;4986094;28;20065;-64
2023/12/08 00:51:14;;;;;;;38.83;13.10;;;0.60;99.90;;;;;;4985772;28;20030;-63
2023/12/08 00:53:41;;;;;;;34.42;13.43;;;0.70;99.90;;;;;;4968838;28;20039;-64
2023/12/08 00:56:07;;;;;;;33.65;13.30;;;0.60;99.90;;;;;;4972363;28;20480;-64
2023/12/08 00:58:32;;;;;;;35.03;13.68;;;0.60;99.90;;;;;;4977681;28;20057;-64
2023/12/08 01:00:58;;;;;;;31.17;12.85;;;0.60;99.90;;;;;;4977642;28;20133;-64
2023/12/08 01:03:24;;;;;;;33.67;13.30;;;0.60;99.90;;;;;;4973123;28;20864;-63
2023/12/08 01:05:49;;;;;;;35.83;12.88;;;0.60;99.90;;;;;;4968697;28;20050;-64
2023/12/08 01:08:15;;;;;;;37.28;13.40;;;0.60;99.90;;;;;;4972780;28;20042;-64
2023/12/08 01:10:41;;;;;;;34.60;12.60;;;0.60;99.90;;;;;;4975299;28;20081;-63
2023/12/08 01:13:06;;;;;;;38.33;13.65;;;0.60;99.90;;;;;;4971051;28;20030;-64
2023/12/08 01:15:33;;;;;;;34.75;13.07;;;0.60;99.90;;;;;;4981267;28;20018;-66
2023/12/08 01:17:59;;;;;;;38.72;14.50;;;0.60;99.90;;;;;;4971609;28;20053;-64
2023/12/08 01:20:24;;;;;;;32.88;13.80;;;0.60;99.90;;;;;;4985087;28;20034;-65
2023/12/08 01:22:50;;;;;;;34.55;13.15;;;0.70;99.90;;;;;;4970722;28;20037;-64
2023/12/08 01:25:16;;;;;;;35.15;12.90;;;0.70;99.90;;;;;;4968834;28;20311;-64
2023/12/08 01:27:42;;;;;;;35.35;13.07;;;0.70;99.90;;;;;;4968018;28;20057;-65
2023/12/08 01:30:08;;;;;;;33.67;12.30;;;0.70;99.90;;;;;;4969919;28;20027;-65
2023/12/08 01:32:33;;;;;;;31.27;12.20;;;0.80;99.90;;;;;;4974629;28;20116;-66
2023/12/08 01:34:59;;;;;;;34.80;13.07;;;0.80;99.90;;;;;;4974151;28;20480;-64
2023/12/08 01:37:24;;;;;;;35.45;13.90;;;0.80;99.90;;;;;;4975061;28;20122;-65
2023/12/08 01:39:50;;;;;;;36.30;13.38;;;0.80;99.90;;;;;;4972631;28;20035;-64
2023/12/08 01:42:16;;;;;;;30.13;12.30;;;0.90;99.90;;;;;;4975890;28;20696;-64
2023/12/08 01:44:41;;;;;;;33.63;12.90;;;0.80;99.90;;;;;;4973540;28;20073;-65
2023/12/08 01:47:07;;;;;;;35.35;12.93;;;0.80;99.90;;;;;;4974811;28;20495;-64
2023/12/08 01:49:34;;;;;;;35.58;12.82;;;0.90;99.90;;;;;;4974623;28;20051;-66
2023/12/08 01:52:00;;;;;;;36.53;13.20;;;0.80;99.90;;;;;;4973252;28;20089;-64
2023/12/08 01:54:26;;;;;;;38.53;14.10;;;0.90;99.90;;;;;;4973701;28;20030;-64
2023/12/08 01:56:52;;;;;;;32.28;12.80;;;0.90;99.90;;;;;;4974254;28;20062;-64
2023/12/08 01:59:19;;;;;;;35.08;13.38;;;0.90;99.90;;;;;;4975022;28;20055;-64
2023/12/08 02:01:44;;;;;;;36.67;14.20;;;0.90;99.90;;;;;;4973177;28;20057;-64
2023/12/08 02:04:10;;;;;;;31.65;13.40;;;0.90;99.90;;;;;;4973193;28;20451;-64
2023/12/08 02:06:36;;;;;;;34.17;14.18;;;0.80;99.90;;;;;;4974976;28;20049;-66
2023/12/08 02:09:02;;;;;;;34.97;14.07;;;0.80;99.90;;;;;;4974527;28;20105;-64
2023/12/08 02:11:28;;;;;;;34.72;14.07;;;0.70;99.90;;;;;;4974746;28;20031;-64
2023/12/08 02:13:54;;;;;;;38.35;14.40;;;0.70;99.90;;;;;;4960583;28;20039;-64
2023/12/08 02:16:27;;;;;;;38.60;14.38;;;0.60;99.90;;;;;;4974960;28;20031;-64
2023/12/08 02:18:55;;;;;;;36.08;14.30;;;0.60;99.90;;;;;;4973412;28;20088;-64
2023/12/08 02:21:21;;;;;;;38.50;14.60;;;0.70;99.90;;;;;;4974524;28;20035;-63
2023/12/08 02:23:50;;;;;;;37.95;14.18;;;0.70;99.90;;;;;;4974867;28;20475;-64
2023/12/08 02:26:20;;;;;;;37.83;14.05;;;0.70;99.90;;;;;;4975485;28;20058;-64
2023/12/08 02:28:46;;;;;;;38.28;13.55;;;0.70;99.90;;;;;;4977660;28;20093;-64
2023/12/08 02:31:15;;;;;;;37.58;14.60;;;0.70;99.90;;;;;;4976470;28;20043;-64
2023/12/08 02:33:45;;;;;;;38.67;14.77;;;0.70;99.90;;;;;;4983726;28;20047;-64
2023/12/08 02:36:13;;;;;;;39.10;14.55;;;0.60;99.90;;;;;;4979282;28;20061;-64
2023/12/08 02:38:39;;;;;;;36.63;14.20;;;0.60;99.90;;;;;;4988539;28;20457;-65
2023/12/08 02:41:04;;;;;;;37.03;15.20;;;0.60;99.90;;;;;;4960044;28;20670;-65
2023/12/08 02:43:30;;;;;;;35.30;14.60;;;0.60;99.90;;;;;;4976031;28;20057;-63
2023/12/08 02:45:56;;;;;;;35.03;14.43;;;0.60;99.90;;;;;;4978312;28;20074;-64
2023/12/08 02:48:21;;;;;;;34.55;12.93;;;0.70;99.90;;;;;;4979783;28;20776;-64
2023/12/08 02:50:47;;;;;;;35.78;14.00;;;0.70;99.90;;;;;;4986495;28;20092;-65
2023/12/08 02:53:13;;;;;;;33.20;13.15;;;0.70;99.90;;;;;;4978590;28;20490;-65
2023/12/08 02:55:38;;;;;;;33.25;13.75;;;0.70;99.90;;;;;;4973944;28;20443;-66
2023/12/08 02:58:04;;;;;;;33.47;13.73;;;0.70;99.90;;;;;;4977320;28;20835;-64
2023/12/08 03:00:30;;;;;;;31.80;12.52;;;0.80;99.90;;;;;;4971426;28;20027;-64
2023/12/08 03:02:55;;;;;;;36.85;14.18;;;0.80;99.90;;;;;;4973710;28;20033;-65
2023/12/08 03:05:21;;;;;;;33.58;12.85;;;0.80;99.90;;;;;;4989225;28;20506;-64
2023/12/08 03:07:46;;;;;;;33.72;12.60;;;0.80;99.90;;;;;;4989026;28;20045;-66
2023/12/08 03:10:13;;;;;;;33.78;13.88;;;0.80;99.90;;;;;;4986841;28;20069;-64
2023/12/08 03:12:38;;;;;;;33.65;13.00;;;0.80;99.90;;;;;;4971549;28;20039;-66
2023/12/08 03:15:05;;;;;;;35.47;13.55;;;0.80;99.90;;;;;;4981931;28;20038;-64
2023/12/08 03:17:30;;;;;;;37.40;14.23;;;0.80;99.90;;;;;;4987262;28;20437;-65
2023/12/08 03:19:56;;;;;;;33.28;12.90;;;0.80;99.90;;;;;;4984368;28;20030;-64
2023/12/08 03:22:21;;;;;;;34.92;14.13;;;0.80;99.90;;;;;;4985257;28;20038;-65
2023/12/08 03:24:47;;;;;;;35.40;13.55;;;0.80;99.90;;;;;;4989832;28;20039;-64
2023/12/08 03:27:13;;;;;;;35.92;14.35;;;0.70;99.90;;;;;;4990891;28;20133;-64
2023/12/08 03:29:40;;;;;;;35.58;13.65;;;0.80;99.90;;;;;;4980510;28;20046;-67
2023/12/08 03:32:06;;;;;;;34.28;13.63;;;0.80;99.90;;;;;;4978372;28;20117;-64
2023/12/08 03:34:32;;;;;;;34.40;13.25;;;0.80;99.90;;;;;;4971716;28;20030;-65
2023/12/08 03:36:57;;;;;;;31.25;13.20;;;0.80;99.90;;;;;;4971591;28;20050;-64
2023/12/08 03:39:23;;;;;;;36.58;13.48;;;0.80;99.90;;;;;;4973618;28;20064;-64
2023/12/08 03:41:48;;;;;;;34.35;12.82;;;0.90;99.90;;;;;;4978193;28;20053;-64
2023/12/08 03:44:14;;;;;;;37.97;13.52;;;0.90;99.90;;;;;;4974448;28;20526;-64
2023/12/08 03:46:44;;;;;;;34.33;12.27;;;0.90;99.90;;;;;;4976926;28;20097;-67
2023/12/08 03:49:09;;;;;;;35.80;13.93;;;0.90;99.90;;;;;;4975900;28;20023;-64
2023/12/08 03:51:35;;;;;;;39.80;13.85;;;0.90;99.90;;;;;;4978010;28;20093;-64
2023/12/08 03:54:01;;;;;;;36.05;13.80;;;0.90;99.90;;;;;;4980053;28;20064;-64
2023/12/08 03:56:26;;;;;;;33.42;13.30;;;0.90;99.90;;;;;;4981378;28;20042;-64
2023/12/08 03:58:52;;;;;;;34.28;13.68;;;0.90;99.90;;;;;;4976395;28;20035;-65
2023/12/08 04:01:19;;;;;;;37.15;13.60;;;0.90;99.90;;;;;;4977950;28;20030;-65
2023/12/08 04:03:45;;;;;;;33.85;13.60;;;0.90;99.90;;;;;;4982643;28;20066;-65
2023/12/08 04:06:11;;;;;;;41.00;14.07;;;0.90;99.90;;;;;;4969663;28;20043;-64
2023/12/08 04:08:36;;;;;;;36.00;13.75;;;0.90;99.90;;;;;;4971204;28;20042;-65
2023/12/08 04:11:03;;;;;;;38.17;14.20;;;0.90;99.90;;;;;;4970211;28;20089;-64
2023/12/08 04:13:28;;;;;;;35.72;13.43;;;0.80;99.90;;;;;;4973596;28;20372;-64
2023/12/08 04:15:54;;;;;;;38.90;14.40;;;0.80;99.90;;;;;;4970267;28;20042;-64
2023/12/08 04:18:20;;;;;;;33.78;13.45;;;0.90;99.90;;;;;;4981000;28;20489;-64
2023/12/08 04:20:45;;;;;;;34.35;13.35;;;0.90;99.90;;;;;;4967153;28;20066;-65
2023/12/08 04:23:11;;;;;;;35.72;12.95;;;0.80;99.90;;;;;;4964457;28;20446;-65
2023/12/08 04:25:37;;;;;;;38.10;13.95;;;0.90;99.90;;;;;;4970374;28;20622;-65
2023/12/08 04:28:04;;;;;;;44.47;14.65;;;0.90;99.90;;;;;;4971108;28;20031;-64
2023/12/08 04:30:30;;;;;;;38.63;13.45;;;0.80;99.90;;;;;;4969740;28;20038;-64
2023/12/08 04:32:55;;;;;;;38.10;14.25;;;0.80;99.90;;;;;;4969401;28;20030;-64
2023/12/08 04:35:22;;;;;;;32.85;13.70;;;0.80;99.90;;;;;;4970542;28;20037;-64
2023/12/08 04:37:48;;;;;;;37.63;13.75;;;0.80;99.90;;;;;;4977658;28;20034;-64
2023/12/08 04:40:14;;;;;;;37.00;13.85;;;0.90;99.90;;;;;;4971455;28;20116;-64
2023/12/08 04:42:40;;;;;;;39.92;14.82;;;0.90;99.90;;;;;;4970299;28;20488;-64
2023/12/08 04:45:07;;;;;;;36.80;14.82;;;0.90;99.90;;;;;;4969304;28;20019;-64
2023/12/08 04:47:33;;;;;;;41.10;16.33;;;0.80;99.90;;;;;;4972420;28;20034;-64
2023/12/08 04:49:59;;;;;;;39.20;15.13;;;0.80;99.90;;;;;;4980884;28;20027;-64
2023/12/08 04:52:24;;;;;;;40.38;15.25;;;0.90;99.90;;;;;;4985204;28;20030;-65
2023/12/08 04:54:50;;;;;;;37.90;14.77;;;0.90;99.90;;;;;;4968348;28;20072;-64
2023/12/08 04:57:15;;;;;;;32.38;13.60;;;0.90;99.90;;;;;;4968843;28;20082;-63
2023/12/08 04:59:41;;;;;;;35.60;14.25;;;0.90;99.90;;;;;;4960232;28;20041;-63
2023/12/08 05:02:07;;;;;;;37.05;14.27;;;1.00;99.90;;;;;;4972217;28;20558;-64
2023/12/08 05:04:35;;;;;;;32.88;13.40;;;1.00;99.90;;;;;;4969470;28;20031;-63
2023/12/08 05:07:00;;;;;;;39.05;15.48;;;1.00;99.90;;;;;;4968177;28;20114;-62
2023/12/08 05:09:26;;;;;;;37.08;14.55;;;1.00;99.90;;;;;;4969748;28;20121;-63
2023/12/08 05:11:52;;;;;;;35.97;14.27;;;1.00;99.90;;;;;;4968562;28;20476;-64
2023/12/08 05:14:17;;;;;;;43.10;15.60;;;1.10;99.90;;;;;;4969999;28;20087;-63
2023/12/08 05:16:43;;;;;;;38.42;14.75;;;1.10;99.90;;;;;;4969186;28;20044;-66
2023/12/08 05:19:09;;;;;;;41.40;16.00;;;1.10;99.90;;;;;;4968957;28;20031;-63
2023/12/08 05:21:34;;;;;;;43.58;16.05;;;1.10;99.90;;;;;;4969412;28;20501;-64
2023/12/08 05:24:00;;;;;;;36.40;14.75;;;1.20;99.90;;;;;;4968504;28;20038;-63
2023/12/08 05:26:26;;;;;;;46.13;17.50;;;1.20;99.90;;;;;;4968285;28;20058;-63
2023/12/08 05:28:51;;;;;;;54.60;22.95;;;1.20;99.90;;;;;;4956129;28;20038;-64
2023/12/08 05:31:18;;;;;;;45.80;18.63;;;1.10;99.90;;;;;;4951654;28;20377;-64
2023/12/08 05:33:44;;;;;;;45.38;18.00;;;1.10;99.90;;;;;;4949303;28;20050;-63
2023/12/08 05:36:10;;;;;;;43.47;17.08;;;1.10;99.90;;;;;;4947725;28;20483;-64
2023/12/08 05:38:35;;;;;;;48.50;19.45;;;1.10;99.90;;;;;;4952767;28;20019;-65
2023/12/08 05:41:01;;;;;;;49.53;19.40;;;1.00;99.90;;;;;;4964319;28;20041;-64
2023/12/08 05:43:28;;;;;;;43.55;17.92;;;0.90;99.90;;;;;;4955585;28;20027;-65
2023/12/08 05:45:53;;;;;;;48.60;18.98;;;0.90;99.90;;;;;;4957431;28;20403;-64
2023/12/08 05:48:19;;;;;;;61.47;23.23;;;0.80;99.90;;;;;;4959861;28;20038;-64
2023/12/08 05:50:45;;;;;;;59.25;22.90;;;0.80;99.90;;;;;;4954266;28;20041;-66
2023/12/08 05:53:10;;;;;;;52.45;21.02;;;0.80;99.90;;;;;;4953489;28;20023;-63
2023/12/08 05:55:36;;;;;;;53.70;20.65;;;0.80;99.90;;;;;;4943052;28;20135;-63
2023/12/08 05:58:02;;;;;;;49.90;18.40;;;0.90;99.90;;;;;;4946249;29;20145;-63
2023/12/08 06:00:27;;;;;;;42.20;17.55;;;0.90;99.90;;;;;;4949573;28;20369;-64
2023/12/08 06:02:53;;;;;;;44.17;16.85;;;0.90;99.90;;;;;;4951335;28;20046;-64
2023/12/08 06:05:19;;;;;;;50.50;19.63;;;0.90;99.90;;;;;;4948083;28;20039;-64
2023/12/08 06:07:44;;;;;;;48.70;17.30;;;0.90;99.90;;;;;;4950044;29;20472;-64
2023/12/08 06:10:11;;;;;;;42.15;17.17;;;0.90;99.90;;;;;;4955856;28;20046;-63
2023/12/08 06:12:37;;;;;;;51.63;17.70;;;1.00;99.90;;;;;;4958428;28;20566;-64
2023/12/08 06:15:05;;;;;;;52.72;21.60;;;0.90;99.90;;;;;;4949395;28;20023;-65
2023/12/08 06:17:30;;;;;;;48.65;18.30;;;1.00;99.90;;;;;;4952641;28;20034;-62
2023/12/08 06:19:56;;;;;;;46.28;18.05;;;1.00;99.90;;;;;;4955817;28;20083;-63
2023/12/08 06:22:22;;;;;;;43.90;16.88;;;0.90;99.90;;;;;;4965584;28;20035;-62
2023/12/08 06:24:48;;;;;;;50.05;18.58;;;1.00;99.90;;;;;;4953266;28;20543;-66
2023/12/08 06:27:15;;;;;;;48.40;18.60;;;1.00;99.90;;;;;;4968602;28;20082;-63
2023/12/08 06:29:41;;;;;;;46.22;18.17;;;1.10;99.90;;;;;;4971595;28;20039;-64
2023/12/08 06:32:07;;;;;;;45.78;18.20;;;1.00;99.90;;;;;;4971703;28;20430;-63
2023/12/08 06:34:32;;;;;;;46.67;18.30;;;1.10;99.90;;;;;;4972440;28;20027;-64
2023/12/08 06:36:58;;;;;;;47.33;18.25;;;1.10;99.90;;;;;;4971599;28;20425;-64
2023/12/08 06:39:24;;;;;;;45.42;17.20;;;1.10;99.90;;;;;;4972713;28;20030;-63
2023/12/08 06:41:50;;;;;;;48.03;18.08;;;1.10;99.90;;;;;;4972286;28;20528;-66
2023/12/08 06:44:15;;;;;;;47.97;18.50;;;1.10;99.90;;;;;;4971784;28;20042;-65
2023/12/08 06:46:42;;;;;;;53.42;19.13;;;1.00;99.90;;;;;;4971024;28;20554;-63
2023/12/08 06:49:08;;;;;;;46.80;17.40;;;1.00;99.90;;;;;;4971514;28;20658;-63
2023/12/08 06:51:35;;;;;;;53.75;19.45;;;1.00;99.90;;;;;;4972288;28;20032;-64
2023/12/08 06:54:02;;;;;;;53.22;19.13;;;1.00;99.90;;;;;;4971303;28;20034;-62
2023/12/08 06:56:28;;;;;;;54.60;20.17;;;1.00;99.90;;;;;;4972279;28;20487;-62
2023/12/08 06:58:53;;;;;;;50.97;19.83;;;0.90;99.90;;;;;;4971647;28;20033;-63
2023/12/08 07:01:19;;;;;;;58.92;20.50;;;0.90;99.90;;;;;;4971394;28;20109;-62
2023/12/08 07:03:45;;;;;;;52.55;19.80;;;0.90;99.90;;;;;;4971813;28;20113;-62
2023/12/08 07:06:10;;;;;;;50.10;19.63;;;0.90;99.90;;;;;;4970956;28;20027;-62
2023/12/08 07:08:36;;;;;;;51.58;20.08;;;0.90;99.90;;;;;;4971965;28;20078;-62
2023/12/08 07:11:02;;;;;;;52.80;19.33;;;0.90;99.90;;;;;;4971295;28;20031;-63
2023/12/08 07:13:28;;;;;;;52.00;18.90;;;0.90;99.90;;;;;;4970772;28;20110;-63
2023/12/08 07:15:53;;;;;;;50.40;18.98;;;0.90;99.90;;;;;;4971085;28;20118;-64
2023/12/08 07:18:19;;;;;;;54.28;19.90;;;0.90;99.90;;;;;;4972039;28;20034;-63
2023/12/08 07:20:45;;;;;;;55.53;20.50;;;0.90;99.90;;;;;;4959697;28;20027;-64
2023/12/08 07:23:11;;;;;;;62.42;21.27;;;0.90;99.90;;;;;;4970970;28;20067;-63
2023/12/08 07:25:36;;;;;;;78.25;26.42;;;1.00;99.90;;;;;;4971604;28;20051;-64
2023/12/08 07:28:02;;;;;;;73.82;25.08;;;1.00;99.90;;;;;;4970521;28;20047;-63
2023/12/08 07:30:28;;;;;;;58.05;20.83;;;1.10;99.90;;;;;;4971430;28;20034;-63
2023/12/08 07:32:53;;;;;;;57.95;20.73;;;1.10;99.90;;;;;;4970914;28;20038;-65
2023/12/08 07:35:19;;;;;;;56.13;21.13;;;1.20;99.90;;;;;;4970654;28;20046;-63
2023/12/08 07:37:45;;;;;;;57.67;20.67;;;1.20;99.90;;;;;;4971495;28;20039;-65
2023/12/08 07:40:11;;;;;;;54.15;20.90;;;1.20;99.90;;;;;;4970392;28;20093;-63
2023/12/08 07:42:37;;;;;;;55.13;20.70;;;1.20;99.90;;;;;;4971334;28;20035;-63
2023/12/08 07:45:06;;;;;;;54.38;20.27;;;1.20;99.90;;;;;;4970454;28;20034;-65
2023/12/08 07:47:32;;;;;;;56.00;20.52;;;1.20;99.90;;;;;;4971325;28;20475;-63
2023/12/08 07:49:58;;;;;;;54.33;21.20;;;1.30;99.90;;;;;;4970469;28;20039;-65
2023/12/08 07:52:24;;;;;;;60.55;22.33;;;1.30;99.90;;;;;;4971422;28;20486;-64
2023/12/08 07:54:50;;;;;;;62.13;24.05;;;1.40;99.90;;;;;;4971186;28;20034;-64
2023/12/08 07:57:16;;;;;;;60.25;22.35;;;1.40;99.90;;;;;;4970563;28;20029;-65
2023/12/08 07:59:41;;;;;;;55.78;20.73;;;1.40;99.90;;;;;;4972208;28;20431;-64
2023/12/08 08:02:07;;;;;;;54.03;20.90;;;1.50;99.90;;;;;;4978497;28;20479;-65
2023/12/08 08:04:32;;;;;;;55.55;21.02;;;1.50;99.90;;;;;;4979103;28;20037;-65
2023/12/08 08:06:58;;;;;;;65.72;24.15;;;1.50;99.90;;;;;;4985185;28;20038;-66
2023/12/08 08:09:24;;;;;;;70.80;25.63;;;1.60;99.90;;;;;;4974167;28;20416;-67
2023/12/08 08:11:50;;;;;;;73.88;27.10;;;1.60;99.90;;;;;;4969996;28;20464;-64
2023/12/08 08:14:15;;;;;;;76.80;27.73;;;1.60;99.90;;;;;;4970144;28;20023;-64
2023/12/08 08:16:41;;;;;;;82.20;28.88;;;1.60;99.90;;;;;;4970870;28;20027;-64
2023/12/08 08:19:08;;;;;;;67.72;25.48;;;1.60;99.90;;;;;;4969911;28;20463;-64
2023/12/08 08:21:33;;;;;;;67.68;24.52;;;1.70;99.90;;;;;;4970305;28;20109;-64
2023/12/08 08:23:59;;;;;;;62.72;22.80;;;1.70;99.90;;;;;;4960264;28;20118;-64
2023/12/08 08:26:25;;;;;;;60.53;23.05;;;1.80;99.90;;;;;;4970038;28;20051;-64
2023/12/08 08:28:50;;;;;;;60.83;23.38;;;1.90;99.90;;;;;;4973505;28;20058;-62
2023/12/08 08:31:18;;;;;;;67.93;25.25;;;1.90;99.90;;;;;;4987697;28;20034;-63
2023/12/08 08:33:44;;;;;;;69.78;25.90;;;2.00;99.90;;;;;;4989994;28;20391;-63
2023/12/08 08:36:10;;;;;;;69.25;26.63;;;2.00;99.90;;;;;;4978662;28;20077;-64
2023/12/08 08:38:36;;;;;;;66.38;24.17;;;2.10;99.90;;;;;;4989768;28;20058;-63
2023/12/08 08:41:03;;;;;;;72.93;25.60;;;2.10;99.90;;;;;;4976148;28;20498;-65
2023/12/08 08:43:28;;;;;;;72.25;26.75;;;2.10;99.90;;;;;;4986966;28;20033;-64
2023/12/08 08:45:54;;;;;;;71.03;26.58;;;2.20;99.90;;;;;;4989062;28;20467;-63
2023/12/08 08:48:20;;;;;;;219.55;32.25;;;2.20;99.90;;;;;;4970735;28;20101;-63
2023/12/08 08:50:46;;;;;;;128.27;26.67;;;2.20;99.90;;;;;;4970271;28;20027;-63
2023/12/08 08:53:11;;;;;;;80.68;25.85;;;2.10;99.90;;;;;;4969594;28;20031;-65
2023/12/08 08:55:37;;;;;;;71.25;26.02;;;2.10;99.90;;;;;;4982335;28;20050;-63
2023/12/08 08:58:03;;;;;;;65.32;25.27;;;2.10;99.90;;;;;;4969517;28;20043;-63
2023/12/08 09:00:29;;;;;;;65.47;25.80;;;2.20;99.90;;;;;;4978151;28;20041;-63
2023/12/08 09:02:56;;;;;;;65.10;24.17;;;2.20;99.90;;;;;;4976567;28;20034;-64
2023/12/08 09:05:23;;;;;;;72.68;26.20;;;2.20;99.90;;;;;;4977894;28;20491;-64
2023/12/08 09:07:49;;;;;;;68.05;24.77;;;2.20;99.90;;;;;;4969956;28;20034;-63
2023/12/08 09:10:14;;;;;;;66.63;26.38;;;2.20;99.90;;;;;;4969459;28;20091;-63
2023/12/08 09:12:40;;;;;;;69.57;26.23;;;2.30;99.90;;;;;;4984278;28;20074;-64
2023/12/08 09:15:06;;;;;;;76.57;27.10;;;2.20;99.90;;;;;;4972946;28;20030;-63
2023/12/08 09:17:31;;;;;;;81.68;28.85;;;2.20;99.90;;;;;;4984204;28;20050;-64
2023/12/08 09:19:57;;;;;;;74.07;28.02;;;2.30;99.90;;;;;;4979869;28;20042;-67
2023/12/08 09:22:22;;;;;;;68.80;25.05;;;2.10;99.90;;;;;;4988771;28;20117;-64
2023/12/08 09:24:48;;;;;;;71.82;27.55;;;2.10;99.90;;;;;;4977292;28;20468;-65
2023/12/08 09:27:14;;;;;;;66.38;25.25;;;2.20;99.90;;;;;;4967571;28;20066;-64
2023/12/08 09:29:39;;;;;;;68.65;26.05;;;2.20;99.90;;;;;;4968968;28;20039;-62
2023/12/08 09:32:05;;;;;;;72.03;28.40;;;2.30;99.90;;;;;;4975143;28;20034;-64
2023/12/08 09:34:31;;;;;;;75.63;28.95;;;2.40;99.90;;;;;;4989142;28;20034;-63
2023/12/08 09:36:57;;;;;;;70.57;26.85;;;2.50;99.90;;;;;;4976486;28;20546;-64
2023/12/08 09:39:23;;;;;;;75.28;26.75;;;2.50;99.90;;;;;;4968769;28;20034;-65
2023/12/08 09:41:54;;;;;;;83.60;27.95;;;2.60;99.90;;;;;;4954447;28;20046;-64
2023/12/08 09:44:20;;;;;;;71.82;26.08;;;2.60;99.90;;;;;;4973874;28;20070;-63
2023/12/08 09:46:54;;;;;;;71.60;27.05;;;2.50;99.90;;;;;;4969310;28;20400;-63
2023/12/08 09:49:44;;;;;;;69.55;26.48;;;2.50;99.90;;;;;;4955992;28;20142;-66
2023/12/08 09:52:15;;;;;;;76.68;26.33;;;2.50;99.90;;;;;;4968776;28;20404;-64
2023/12/08 09:54:43;;;;;;;63.50;25.35;;;2.50;99.90;;;;;;4973220;28;20034;-63
2023/12/08 09:57:09;;;;;;;68.40;26.48;;;2.50;99.90;;;;;;4973135;28;20039;-64
2023/12/08 09:59:38;;;;;;;72.93;27.08;;;2.50;99.90;;;;;;4980238;28;20414;-64
2023/12/08 10:02:04;;;;;;;70.25;27.25;;;2.50;99.90;;;;;;4965862;28;20038;-66
2023/12/08 10:04:29;;;;;;;65.72;25.90;;;2.60;99.90;;;;;;4980626;28;20041;-64
2023/12/08 10:07:00;;;;;;;68.18;26.98;;;2.60;99.90;;;;;;4973923;28;20072;-67
2023/12/08 10:09:29;;;;;;;70.25;26.65;;;2.60;99.90;;;;;;4984849;28;20022;-65
2023/12/08 10:11:55;;;;;;;68.15;25.63;;;2.70;99.90;;;;;;4977299;28;20026;-65
2023/12/08 10:14:21;;;;;;;74.65;27.30;;;2.70;99.90;;;;;;4981322;28;20620;-65
2023/12/08 10:16:47;;;;;;;69.93;26.02;;;2.70;99.90;;;;;;4974101;28;20042;-64
2023/12/08 10:19:13;;;;;;;74.22;29.38;;;2.70;99.90;;;;;;4972224;28;20121;-64
2023/12/08 10:21:39;;;;;;;75.18;29.02;;;2.80;99.90;;;;;;4972800;28;20496;-64
2023/12/08 10:24:08;;;;;;;73.88;28.02;;;2.80;99.90;;;;;;4972098;28;20058;-67
2023/12/08 10:26:34;;;;;;;71.60;27.38;;;2.90;99.90;;;;;;4972039;28;20062;-65
2023/12/08 10:29:00;;;;;;;77.50;29.75;;;2.90;99.90;;;;;;4972670;28;20384;-64
2023/12/08 10:31:27;;;;;;;111.88;40.47;;;3.00;99.90;;;;;;4972427;28;20042;-63
2023/12/08 10:33:54;;;;;;;113.35;40.15;;;2.90;99.90;;;;;;4972526;28;20476;-63
2023/12/08 10:36:20;;;;;;;93.50;35.40;;;2.90;99.90;;;;;;4971888;28;20039;-63
2023/12/08 10:38:49;;;;;;;91.60;34.05;;;2.90;99.90;;;;;;4972301;28;20486;-64
2023/12/08 10:41:16;;;;;;;102.95;36.97;;;2.90;99.90;;;;;;4970926;28;20097;-63
2023/12/08 10:43:43;;;;;;;91.32;33.47;;;3.00;99.90;;;;;;4971982;28;20049;-63
2023/12/08 10:46:09;;;;;;;93.78;35.63;;;3.10;99.90;;;;;;4986167;28;20034;-64
2023/12/08 10:48:37;;;;;;;100.05;37.88;;;3.20;99.90;;;;;;4972094;28;20783;-63
2023/12/08 10:51:03;;;;;;;103.30;38.50;;;3.30;99.90;;;;;;4972123;28;20507;-65
2023/12/08 10:53:29;;;;;;;101.05;36.55;;;3.30;99.90;;;;;;4971870;28;20498;-63
2023/12/08 10:56:04;;;;;;;92.25;33.47;;;3.40;99.90;;;;;;4972443;28;20039;-64
2023/12/08 10:58:32;;;;;;;89.25;34.00;;;3.50;99.90;;;;;;4971581;28;20026;-64
2023/12/08 11:01:00;;;;;;;89.45;34.00;;;3.50;99.90;;;;;;4972027;28;20050;-64
2023/12/08 11:03:32;;;;;;;87.45;33.40;;;3.50;99.90;;;;;;4970695;28;20089;-65
2023/12/08 11:06:06;;;;;;;91.85;33.85;;;3.50;99.90;;;;;;4972617;28;20423;-64
2023/12/08 11:08:34;;;;;;;87.72;32.65;;;3.50;99.90;;;;;;4974607;28;20565;-64
2023/12/08 11:11:03;;;;;;;82.05;32.38;;;3.50;99.90;;;;;;4971956;28;20523;-65
2023/12/08 11:13:30;;;;;;;86.65;32.38;;;3.50;99.90;;;;;;4971500;28;20101;-63
2023/12/08 11:15:59;;;;;;;85.55;32.03;;;3.60;99.90;;;;;;4971507;28;20069;-65
2023/12/08 11:18:28;;;;;;;93.97;32.05;;;3.60;99.90;;;;;;4975637;28;20915;-64
2023/12/08 11:20:54;;;;;;;85.38;33.90;;;3.60;99.90;;;;;;4972306;28;20081;-67
2023/12/08 11:23:21;;;;;;;86.28;33.45;;;3.60;99.90;;;;;;4970031;28;20041;-67
2023/12/08 11:25:59;;;;;;;87.53;33.20;;;3.70;99.90;;;;;;4971618;28;20082;-65
2023/12/08 11:28:53;;;;;;;77.10;30.73;;;3.70;99.90;;;;;;4970314;28;20246;-66
2023/12/08 11:32:00;;;;;;;79.80;31.48;;;3.80;99.90;;;;;;4967850;28;20531;-66
2023/12/08 11:34:34;;;;;;;75.60;30.95;;;3.90;99.90;;;;;;4968589;28;20034;-64
2023/12/08 11:37:01;;;;;;;82.60;31.33;;;4.00;99.90;;;;;;4970311;28;20135;-65
2023/12/08 11:39:40;;;;;;;78.18;30.50;;;4.10;99.90;;;;;;4964563;28;20023;-64
2023/12/08 11:42:18;;;;;;;107.30;32.55;;;4.10;99.90;;;;;;4970661;28;20027;-67
2023/12/08 11:44:46;;;;;;;78.65;30.98;;;4.20;99.90;;;;;;4965837;28;20038;-64
2023/12/08 11:47:17;;;;;;;83.45;32.75;;;4.20;99.90;;;;;;4968372;28;20046;-65
2023/12/08 11:49:44;;;;;;;86.65;33.90;;;4.30;99.90;;;;;;4971354;28;20094;-64
2023/12/08 11:52:28;;;;;;;87.82;35.75;;;4.40;99.90;;;;;;4970254;28;20037;-67
2023/12/08 11:55:24;;;;;;;97.85;39.25;;;4.40;99.90;;;;;;4978265;28;20406;-64
2023/12/08 11:58:01;;;;;;;89.72;34.13;;;4.50;99.90;;;;;;4973189;28;20031;-64
2023/12/08 12:00:29;;;;;;;95.05;37.00;;;4.50;99.90;;;;;;4959694;28;20026;-66
2023/12/08 12:02:56;;;;;;;136.65;37.47;;;4.60;99.90;;;;;;4970515;28;20045;-64
2023/12/08 12:05:22;;;;;;;85.18;34.70;;;4.70;99.90;;;;;;4967789;28;20022;-65
2023/12/08 12:07:52;;;;;;;114.68;46.22;;;4.70;99.90;;;;;;4970225;28;20129;-67
2023/12/08 12:10:28;;;;;;;126.38;50.13;;;4.70;99.90;;;;;;4969270;28;20747;-64
2023/12/08 12:13:04;;;;;;;135.05;52.95;;;4.80;99.90;;;;;;4970146;28;20042;-65
2023/12/08 12:15:33;;;;;;;136.23;52.95;;;4.80;99.90;;;;;;4958071;28;20105;-64
2023/12/08 12:17:59;;;;;;;214.45;73.47;;;4.90;99.90;;;;;;4970081;28;20027;-64
2023/12/08 12:20:28;;;;;;;197.43;71.32;;;5.00;99.90;;;;;;4969492;28;20026;-65
2023/12/08 12:22:54;;;;;;;175.27;68.18;;;5.10;99.90;;;;;;4969450;28;20365;-64
2023/12/08 12:25:19;;;;;;;158.00;65.00;;;5.20;99.90;;;;;;4968432;28;20045;-64
2023/12/08 12:27:49;;;;;;;174.30;72.43;;;5.20;99.90;;;;;;4990085;28;20450;-64
2023/12/08 12:30:16;;;;;;;158.20;64.18;;;5.30;99.90;;;;;;4969600;28;20042;-64
2023/12/08 12:32:44;;;;;;;120.60;49.38;;;5.30;99.90;;;;;;4970372;28;20023;-64